createdAt,value
2022-10-29T00:00:45.425Z,15.92
2022-10-29T00:03:13.303Z,15.88
2022-10-29T00:05:42.561Z,15.85
2022-10-29T00:08:10.653Z,15.87
2022-10-29T00:10:38.488Z,15.81
2022-10-29T00:13:06.390Z,15.74
2022-10-29T00:15:34.281Z,15.72
2022-10-29T00:18:02.166Z,15.65
2022-10-29T00:20:30.290Z,15.61
2022-10-29T00:22:59.596Z,15.58
2022-10-29T00:25:27.471Z,15.52
2022-10-29T00:27:57.314Z,15.48
2022-10-29T00:30:25.423Z,15.45
2022-10-29T00:32:57.570Z,15.51
2022-10-29T00:35:27.837Z,15.49
2022-10-29T00:37:59.564Z,15.51
2022-10-29T00:40:29.159Z,15.48
2022-10-29T00:43:11.971Z,15.44
2022-10-29T00:45:41.865Z,15.41
2022-10-29T00:48:09.846Z,15.45
2022-10-29T00:50:40.027Z,15.43
2022-10-29T00:53:08.006Z,15.37
2022-10-29T00:55:37.625Z,15.37
2022-10-29T00:58:05.861Z,15.32
2022-10-29T01:00:35.111Z,15.31
2022-10-29T01:03:03.078Z,15.35
2022-10-29T01:05:31.596Z,15.35
2022-10-29T01:07:59.581Z,15.43
2022-10-29T01:10:32.971Z,15.39
2022-10-29T01:13:11.758Z,15.45
2022-10-29T01:15:45.379Z,15.41
2022-10-29T01:18:18.649Z,15.34
2022-10-29T01:21:00.661Z,15.29
2022-10-29T01:23:45.286Z,15.16
2022-10-29T01:26:23.024Z,15.04
2022-10-29T01:29:03.690Z,14.93
2022-10-29T01:31:35.321Z,14.80
2022-10-29T01:34:07.602Z,14.76
2022-10-29T01:36:39.613Z,14.69
2022-10-29T01:39:10.249Z,14.62
2022-10-29T01:41:42.364Z,14.60
2022-10-29T01:44:16.396Z,14.52
2022-10-29T01:46:48.011Z,14.53
2022-10-29T01:49:18.992Z,14.51
2022-10-29T01:51:47.564Z,14.49
2022-10-29T01:54:15.450Z,14.47
2022-10-29T01:56:43.330Z,14.58
2022-10-29T01:59:22.929Z,14.51
2022-10-29T02:02:07.530Z,14.54
2022-10-29T02:04:44.420Z,14.44
2022-10-29T02:07:18.307Z,14.36
2022-10-29T02:09:53.035Z,14.26
2022-10-29T02:12:24.276Z,14.20
2022-10-29T02:14:54.522Z,14.16
2022-10-29T02:17:24.370Z,14.10
2022-10-29T02:19:52.206Z,14.20
2022-10-29T02:22:20.185Z,14.11
2022-10-29T02:24:48.089Z,14.02
2022-10-29T02:27:16.162Z,13.94
2022-10-29T02:29:44.191Z,13.85
2022-10-29T02:32:12.159Z,13.78
2022-10-29T02:34:41.439Z,13.76
2022-10-29T02:37:09.329Z,13.75
2022-10-29T02:39:37.388Z,13.89
2022-10-29T02:42:05.569Z,13.97
2022-10-29T02:44:33.726Z,13.97
2022-10-29T02:47:01.749Z,13.94
2022-10-29T02:49:29.761Z,13.96
2022-10-29T02:51:59.198Z,13.96
2022-10-29T02:54:27.050Z,13.92
2022-10-29T02:56:54.993Z,13.89
2022-10-29T02:59:22.926Z,13.79
2022-10-29T03:01:51.231Z,13.75
2022-10-29T03:04:19.310Z,13.72
2022-10-29T03:06:47.279Z,13.77
2022-10-29T03:09:16.749Z,13.79
2022-10-29T03:11:44.782Z,13.79
2022-10-29T03:14:13.056Z,13.82
2022-10-29T03:16:41.065Z,13.82
2022-10-29T03:19:08.867Z,13.80
2022-10-29T03:21:36.764Z,13.76
2022-10-29T03:24:05.072Z,13.73
2022-10-29T03:26:34.462Z,13.72
2022-10-29T03:29:02.414Z,13.77
2022-10-29T03:31:30.586Z,13.75
2022-10-29T03:33:58.483Z,13.72
2022-10-29T03:36:26.481Z,13.77
2022-10-29T03:38:54.553Z,13.68
2022-10-29T03:41:22.448Z,13.69
2022-10-29T03:43:52.091Z,13.71
2022-10-29T03:46:20.398Z,13.63
2022-10-29T03:48:50.027Z,13.62
2022-10-29T03:51:18.384Z,13.57
2022-10-29T03:53:46.314Z,13.57
2022-10-29T03:56:14.245Z,13.52
2022-10-29T03:58:42.112Z,13.49
2022-10-29T04:01:12.058Z,13.46
2022-10-29T04:03:42.209Z,13.42
2022-10-29T04:06:11.238Z,13.39
2022-10-29T04:08:39.558Z,13.41
2022-10-29T04:11:08.554Z,13.41
2022-10-29T04:13:36.954Z,13.43
2022-10-29T04:16:04.935Z,13.40
2022-10-29T04:18:34.248Z,13.39
2022-10-29T04:22:40.370Z,13.43
2022-10-29T04:29:27.852Z,13.50
2022-10-29T04:31:55.758Z,13.48
2022-10-29T04:34:25.039Z,13.55
2022-10-29T04:36:53.582Z,13.55
2022-10-29T04:39:23.361Z,13.52
2022-10-29T04:41:51.556Z,13.50
2022-10-29T04:44:20.360Z,13.51
2022-10-29T04:46:50.831Z,13.47
2022-10-29T04:49:19.650Z,13.53
2022-10-29T04:51:49.531Z,13.50
2022-10-29T04:54:17.516Z,13.52
2022-10-29T04:56:46.035Z,13.47
2022-10-29T04:59:14.406Z,13.42
2022-10-29T05:01:42.614Z,13.39
2022-10-29T05:04:10.558Z,13.36
2022-10-29T05:06:38.472Z,13.34
2022-10-29T05:09:07.716Z,13.31
2022-10-29T05:11:36.477Z,13.31
2022-10-29T05:14:04.563Z,13.33
2022-10-29T05:16:33.578Z,13.37
2022-10-29T05:19:01.443Z,13.42
2022-10-29T05:21:31.572Z,13.52
2022-10-29T05:23:59.717Z,13.60
2022-10-29T05:26:31.283Z,13.65
2022-10-29T05:28:59.487Z,13.70
2022-10-29T05:31:28.042Z,13.75
2022-10-29T05:33:56.168Z,13.80
2022-10-29T05:36:24.320Z,13.81
2022-10-29T05:38:52.240Z,13.85
2022-10-29T05:41:20.249Z,13.83
2022-10-29T05:43:50.710Z,13.84
2022-10-29T05:46:18.811Z,13.82
2022-10-29T05:48:46.822Z,13.81
2022-10-29T05:51:15.937Z,13.80
2022-10-29T05:53:44.706Z,13.78
2022-10-29T05:56:12.984Z,13.78
2022-10-29T05:58:40.941Z,13.80
2022-10-29T06:01:11.361Z,13.82
2022-10-29T06:03:39.351Z,13.91
2022-10-29T06:06:07.695Z,13.94
2022-10-29T06:08:35.522Z,13.93
2022-10-29T06:11:03.770Z,13.90
2022-10-29T06:13:31.743Z,13.93
2022-10-29T06:16:00.399Z,13.95
2022-10-29T06:18:33.113Z,13.91
2022-10-29T06:21:03.195Z,13.94
2022-10-29T06:23:31.888Z,13.94
2022-10-29T06:26:00.122Z,13.93
2022-10-29T06:28:34.454Z,13.97
2022-10-29T06:31:02.803Z,14.04
2022-10-29T06:33:32.228Z,14.08
2022-10-29T06:36:00.357Z,14.12
2022-10-29T06:38:28.325Z,14.18
2022-10-29T06:40:56.531Z,14.23
2022-10-29T06:43:24.571Z,14.28
2022-10-29T06:45:52.495Z,14.30
2022-10-29T06:48:22.345Z,14.34
2022-10-29T06:50:52.462Z,14.38
2022-10-29T06:53:20.929Z,14.41
2022-10-29T06:55:49.228Z,14.49
2022-10-29T06:58:18.455Z,14.63
2022-10-29T07:00:47.133Z,14.78
2022-10-29T07:03:15.735Z,14.92
2022-10-29T07:05:43.901Z,15.03
2022-10-29T07:08:13.638Z,15.08
2022-10-29T07:10:41.627Z,15.11
2022-10-29T07:13:10.575Z,15.15
2022-10-29T07:15:38.534Z,15.18
2022-10-29T07:18:07.739Z,15.19
2022-10-29T07:20:36.797Z,15.27
2022-10-29T07:23:04.858Z,15.37
2022-10-29T07:25:37.076Z,15.48
2022-10-29T07:28:05.956Z,15.57
2022-10-29T07:30:34.598Z,15.67
2022-10-29T07:33:02.575Z,15.81
2022-10-29T07:35:30.578Z,15.97
2022-10-29T07:38:05.368Z,16.08
2022-10-29T07:40:40.638Z,16.12
2022-10-29T07:43:09.910Z,16.17
2022-10-29T07:45:37.814Z,16.25
2022-10-29T07:48:07.441Z,16.28
2022-10-29T07:50:35.556Z,16.40
2022-10-29T07:53:04.150Z,16.56
2022-10-29T07:55:32.300Z,16.89
2022-10-29T07:58:02.445Z,17.31
2022-10-29T08:00:30.934Z,18.02
2022-10-29T08:03:02.368Z,18.83
2022-10-29T08:05:33.056Z,19.24
2022-10-29T08:08:01.342Z,19.48
2022-10-29T08:10:30.334Z,19.51
2022-10-29T08:12:59.660Z,19.61
2022-10-29T08:15:30.783Z,19.83
2022-10-29T08:17:59.491Z,20.07
2022-10-29T08:20:29.826Z,20.72
2022-10-29T08:23:00.015Z,21.56
2022-10-29T08:25:28.645Z,22.70
2022-10-29T08:28:01.627Z,23.42
2022-10-29T08:30:31.959Z,23.29
2022-10-29T08:33:00.272Z,23.66
2022-10-29T08:35:32.273Z,23.91
2022-10-29T08:38:00.362Z,23.74
2022-10-29T08:40:30.163Z,23.62
2022-10-29T08:43:19.292Z,24.60
2022-10-29T08:45:49.293Z,25.04
2022-10-29T08:48:23.172Z,23.73
2022-10-29T08:50:54.348Z,22.89
2022-10-29T08:53:27.606Z,23.13
2022-10-29T08:55:58.305Z,24.20
2022-10-29T08:58:37.918Z,25.90
2022-10-29T09:01:11.737Z,26.20
2022-10-29T09:03:41.335Z,24.99
2022-10-29T09:06:15.295Z,24.23
2022-10-29T09:08:49.181Z,22.73
2022-10-29T09:11:26.290Z,21.73
2022-10-29T09:14:03.728Z,21.33
2022-10-29T09:16:43.821Z,20.89
2022-10-29T09:19:25.919Z,20.79
2022-10-29T09:21:57.748Z,21.99
2022-10-29T09:24:30.886Z,22.35
2022-10-29T09:27:00.441Z,22.16
2022-10-29T09:29:49.382Z,21.98
2022-10-29T09:32:23.201Z,21.70
2022-10-29T09:34:52.343Z,21.62
2022-10-29T09:37:23.043Z,21.68
2022-10-29T09:39:51.020Z,21.87
2022-10-29T09:42:21.254Z,21.88
2022-10-29T09:44:52.687Z,21.97
2022-10-29T09:47:27.124Z,22.63
2022-10-29T09:50:07.243Z,23.31
2022-10-29T09:52:37.906Z,23.61
2022-10-29T09:55:06.877Z,23.56
2022-10-29T09:57:36.663Z,23.75
2022-10-29T10:00:05.905Z,23.60
2022-10-29T10:02:37.682Z,24.03
2022-10-29T10:05:06.964Z,24.35
2022-10-29T10:07:34.782Z,24.95
2022-10-29T10:10:03.538Z,26.38
2022-10-29T10:12:45.702Z,26.36
2022-10-29T10:15:23.899Z,28.23
2022-10-29T10:17:58.195Z,29.02
2022-10-29T10:20:28.996Z,30.43
2022-10-29T10:22:57.284Z,30.94
2022-10-29T10:25:33.249Z,30.00
2022-10-29T10:28:04.082Z,31.26
2022-10-29T10:30:32.007Z,31.80
2022-10-29T10:33:13.235Z,31.57
2022-10-29T10:35:41.573Z,31.39
2022-10-29T10:38:10.129Z,30.05
2022-10-29T10:40:38.240Z,29.52
2022-10-29T10:43:08.310Z,31.84
2022-10-29T10:45:39.176Z,33.41
2022-10-29T10:48:09.466Z,32.40
2022-10-29T10:50:41.958Z,31.21
2022-10-29T10:53:17.469Z,30.13
2022-10-29T10:55:48.324Z,29.43
2022-10-29T10:58:21.303Z,28.56
2022-10-29T11:00:53.489Z,30.57
2022-10-29T11:03:26.114Z,31.90
2022-10-29T11:05:59.860Z,32.50
2022-10-29T11:08:29.521Z,34.44
2022-10-29T11:10:59.991Z,35.47
2022-10-29T11:13:30.078Z,37.07
2022-10-29T11:15:59.544Z,36.53
2022-10-29T11:18:31.013Z,32.90
2022-10-29T11:21:06.183Z,31.22
2022-10-29T11:23:38.808Z,29.44
2022-10-29T11:26:09.137Z,30.62
2022-10-29T11:28:40.166Z,33.56
2022-10-29T11:31:12.958Z,34.73
2022-10-29T11:33:44.949Z,35.52
2022-10-29T11:36:18.120Z,36.05
2022-10-29T11:38:48.529Z,36.04
2022-10-29T11:41:23.075Z,35.01
2022-10-29T11:43:51.210Z,35.83
2022-10-29T11:46:24.696Z,36.49
2022-10-29T11:48:57.728Z,36.42
2022-10-29T11:51:32.230Z,35.51
2022-10-29T11:54:02.195Z,34.86
2022-10-29T11:56:42.513Z,35.26
2022-10-29T11:59:14.639Z,36.03
2022-10-29T12:01:47.223Z,35.38
2022-10-29T12:04:24.245Z,36.88
2022-10-29T12:07:01.000Z,37.73
2022-10-29T12:09:40.727Z,38.14
2022-10-29T12:12:12.784Z,38.17
2022-10-29T12:14:45.632Z,38.40
2022-10-29T12:17:14.942Z,39.28
2022-10-29T12:19:47.436Z,38.90
2022-10-29T12:22:32.746Z,36.48
2022-10-29T12:25:08.089Z,36.45
2022-10-29T12:27:42.093Z,35.06
2022-10-29T12:30:11.238Z,31.54
2022-10-29T12:32:52.742Z,29.38
2022-10-29T12:35:28.797Z,27.66
2022-10-29T12:38:06.688Z,26.75
2022-10-29T12:40:35.875Z,26.03
2022-10-29T12:43:05.327Z,26.03
2022-10-29T12:45:43.453Z,26.54
2022-10-29T12:48:27.171Z,29.03
2022-10-29T12:50:59.161Z,30.65
2022-10-29T12:53:31.759Z,30.94
2022-10-29T12:55:59.981Z,30.42
2022-10-29T12:58:48.646Z,30.43
2022-10-29T13:02:05.478Z,29.69
2022-10-29T13:04:27.818Z,28.49
2022-10-29T13:07:01.106Z,27.79
2022-10-29T13:09:31.344Z,27.24
2022-10-29T13:11:59.771Z,26.92
2022-10-29T13:14:30.417Z,27.10
2022-10-29T13:16:59.344Z,27.15
2022-10-29T13:19:35.753Z,26.90
2022-10-29T13:22:05.322Z,26.83
2022-10-29T13:24:34.749Z,26.31
2022-10-29T13:27:05.798Z,25.80
2022-10-29T13:29:47.609Z,25.73
2022-10-29T13:32:34.731Z,25.92
2022-10-29T13:35:03.795Z,26.03
2022-10-29T13:37:49.713Z,25.96
2022-10-29T13:40:36.421Z,26.14
2022-10-29T13:43:10.624Z,26.31
2022-10-29T13:45:40.787Z,27.22
2022-10-29T13:48:14.286Z,27.79
2022-10-29T13:50:43.261Z,27.56
2022-10-29T13:53:14.256Z,27.99
2022-10-29T13:55:44.979Z,27.92
2022-10-29T13:58:17.356Z,27.01
2022-10-29T14:00:47.241Z,27.23
2022-10-29T14:03:19.013Z,27.84
2022-10-29T14:05:50.280Z,28.17
2022-10-29T14:08:21.413Z,28.33
2022-10-29T14:10:51.468Z,28.54
2022-10-29T14:13:26.944Z,28.86
2022-10-29T14:16:02.342Z,28.23
2022-10-29T14:18:32.224Z,27.69
2022-10-29T14:21:00.939Z,27.23
2022-10-29T14:23:29.639Z,27.73
2022-10-29T14:26:00.089Z,27.41
2022-10-29T14:28:30.256Z,27.55
2022-10-29T14:31:02.481Z,27.81
2022-10-29T14:33:31.675Z,27.46
2022-10-29T14:36:02.496Z,27.15
2022-10-29T14:38:34.432Z,26.80
2022-10-29T14:41:02.700Z,26.31
2022-10-29T14:43:32.066Z,25.91
2022-10-29T14:46:10.698Z,25.54
2022-10-29T14:48:39.526Z,24.99
2022-10-29T14:51:07.466Z,24.50
2022-10-29T14:53:41.509Z,24.08
2022-10-29T14:56:11.771Z,23.71
2022-10-29T14:58:42.269Z,23.42
2022-10-29T15:01:14.018Z,23.12
2022-10-29T15:03:42.519Z,22.89
2022-10-29T15:06:15.941Z,22.67
2022-10-29T15:08:44.822Z,22.55
2022-10-29T15:11:31.487Z,22.43
2022-10-29T15:14:01.159Z,22.35
2022-10-29T15:16:29.988Z,22.25
2022-10-29T15:18:59.154Z,22.16
2022-10-29T15:21:29.806Z,22.05
2022-10-29T15:24:00.668Z,21.95
2022-10-29T15:26:28.533Z,21.78
2022-10-29T15:28:57.623Z,21.66
2022-10-29T15:31:30.596Z,21.45
2022-10-29T15:34:01.175Z,21.31
2022-10-29T15:36:44.957Z,21.15
2022-10-29T15:39:21.027Z,20.98
2022-10-29T15:41:49.733Z,20.83
2022-10-29T15:44:31.855Z,20.77
2022-10-29T15:47:02.041Z,20.67
2022-10-29T15:49:32.867Z,20.56
2022-10-29T15:52:01.274Z,20.43
2022-10-29T15:54:37.454Z,20.33
2022-10-29T15:57:10.431Z,20.22
2022-10-29T15:59:40.786Z,20.12
2022-10-29T16:02:14.815Z,20.03
2022-10-29T16:04:43.149Z,19.88
2022-10-29T16:07:12.895Z,19.78
2022-10-29T16:09:44.724Z,19.68
2022-10-29T16:12:13.175Z,19.60
2022-10-29T16:14:41.504Z,19.47
2022-10-29T16:17:13.227Z,19.40
2022-10-29T16:19:42.705Z,19.33
2022-10-29T16:22:12.789Z,19.28
2022-10-29T16:24:40.679Z,19.17
2022-10-29T16:27:13.843Z,19.07
2022-10-29T16:29:41.924Z,19.03
2022-10-29T16:32:10.683Z,18.99
2022-10-29T16:34:38.625Z,18.86
2022-10-29T16:37:10.769Z,18.80
2022-10-29T16:39:38.925Z,18.73
2022-10-29T16:42:07.394Z,18.64
2022-10-29T16:44:35.443Z,18.60
2022-10-29T16:47:03.357Z,18.57
2022-10-29T16:49:31.460Z,18.57
2022-10-29T16:51:59.532Z,18.57
2022-10-29T16:54:28.749Z,18.54
2022-10-29T16:56:57.864Z,18.60
2022-10-29T16:59:25.733Z,18.58
2022-10-29T17:01:53.779Z,18.62
2022-10-29T17:04:21.777Z,18.67
2022-10-29T17:06:49.884Z,18.60
2022-10-29T17:09:20.696Z,18.62
2022-10-29T17:11:54.332Z,18.54
2022-10-29T17:14:22.379Z,18.44
2022-10-29T17:16:50.455Z,18.41
2022-10-29T17:19:18.647Z,18.36
2022-10-29T17:21:46.712Z,18.28
2022-10-29T17:24:14.815Z,18.18
2022-10-29T17:26:42.725Z,18.09
2022-10-29T17:29:25.835Z,18.03
2022-10-29T17:31:57.496Z,18.09
2022-10-29T17:34:26.088Z,17.98
2022-10-29T17:36:54.004Z,17.91
2022-10-29T17:39:22.218Z,17.89
2022-10-29T17:41:50.271Z,17.85
2022-10-29T17:44:21.062Z,17.84
2022-10-29T17:46:49.212Z,17.82
2022-10-29T17:49:21.671Z,17.73
2022-10-29T17:51:50.386Z,17.69
2022-10-29T17:54:18.204Z,17.66
2022-10-29T17:56:46.152Z,17.59
2022-10-29T17:59:13.996Z,17.56
2022-10-29T18:01:57.952Z,17.60
2022-10-29T18:04:26.643Z,17.66
2022-10-29T18:06:56.354Z,17.77
2022-10-29T18:09:24.564Z,17.84
2022-10-29T18:11:52.486Z,17.71
2022-10-29T18:14:20.334Z,17.62
2022-10-29T18:16:50.243Z,17.50
2022-10-29T18:19:18.305Z,17.47
2022-10-29T18:21:46.191Z,17.44
2022-10-29T18:24:14.013Z,17.35
2022-10-29T18:26:42.141Z,17.30
2022-10-29T18:29:12.354Z,17.34
2022-10-29T18:31:45.070Z,17.27
2022-10-29T18:34:15.425Z,17.26
2022-10-29T18:36:44.462Z,17.23
2022-10-29T18:39:12.867Z,17.13
2022-10-29T18:41:41.686Z,17.04
2022-10-29T18:44:09.795Z,17.02
2022-10-29T18:46:40.317Z,17.03
2022-10-29T18:49:10.562Z,17.14
2022-10-29T18:51:39.807Z,17.09
2022-10-29T18:54:07.798Z,17.13
2022-10-29T18:56:35.845Z,17.07
2022-10-29T18:59:03.689Z,17.06
2022-10-29T19:01:32.608Z,17.02
2022-10-29T19:04:01.438Z,17.01
2022-10-29T19:06:30.061Z,17.02
2022-10-29T19:09:03.831Z,16.95
2022-10-29T19:11:32.328Z,16.88
2022-10-29T19:14:01.970Z,16.86
2022-10-29T19:16:30.634Z,16.76
2022-10-29T19:19:00.131Z,16.70
2022-10-29T19:21:28.277Z,16.64
2022-10-29T19:23:56.851Z,16.57
2022-10-29T19:26:27.243Z,16.48
2022-10-29T19:28:55.944Z,16.46
2022-10-29T19:31:26.216Z,16.42
2022-10-29T19:33:56.727Z,16.32
2022-10-29T19:36:30.158Z,16.23
2022-10-29T19:38:59.038Z,16.17
2022-10-29T19:41:29.282Z,16.16
2022-10-29T19:43:59.283Z,16.10
2022-10-29T19:46:27.101Z,15.98
2022-10-29T19:48:56.011Z,15.98
2022-10-29T19:51:24.328Z,15.97
2022-10-29T19:53:52.394Z,15.92
2022-10-29T19:56:21.372Z,15.82
2022-10-29T19:58:50.643Z,15.78
2022-10-29T20:01:20.558Z,15.75
2022-10-29T20:03:49.155Z,15.76
2022-10-29T20:06:17.668Z,15.76
2022-10-29T20:08:45.589Z,15.69
2022-10-29T20:11:14.471Z,15.68
2022-10-29T20:13:42.601Z,15.65
2022-10-29T20:16:14.351Z,15.68
2022-10-29T20:18:42.428Z,15.71
2022-10-29T20:21:10.528Z,15.74
2022-10-29T20:23:38.594Z,15.76
2022-10-29T20:26:07.336Z,15.80
2022-10-29T20:28:35.615Z,15.82
2022-10-29T20:31:30.016Z,15.81
2022-10-29T20:33:59.403Z,15.81
2022-10-29T20:36:29.460Z,15.86
2022-10-29T20:38:57.976Z,15.88
2022-10-29T20:41:25.915Z,15.89
2022-10-29T20:43:54.432Z,15.90
2022-10-29T20:46:22.648Z,15.89
2022-10-29T20:48:51.808Z,15.89
2022-10-29T20:51:19.860Z,15.88
2022-10-29T20:53:47.792Z,15.85
2022-10-29T20:56:16.540Z,15.85
2022-10-29T20:58:45.104Z,15.76
2022-10-29T21:01:14.820Z,15.72
2022-10-29T21:03:47.699Z,15.70
2022-10-29T21:06:18.447Z,15.65
2022-10-29T21:08:47.012Z,15.63
2022-10-29T21:11:16.050Z,15.62
2022-10-29T21:13:44.339Z,15.60
2022-10-29T21:16:16.234Z,15.59
2022-10-29T21:18:45.691Z,15.62
2022-10-29T21:21:14.092Z,15.57
2022-10-29T21:23:43.939Z,15.51
2022-10-29T21:26:13.023Z,15.48
2022-10-29T21:28:40.912Z,15.43
2022-10-29T21:31:11.076Z,15.42
2022-10-29T21:33:39.191Z,15.39
2022-10-29T21:36:08.615Z,15.34
2022-10-29T21:38:36.993Z,15.33
2022-10-29T21:41:09.045Z,15.33
2022-10-29T21:43:37.235Z,15.32
2022-10-29T21:46:05.095Z,15.40
2022-10-29T21:48:32.902Z,15.34
2022-10-29T21:51:05.142Z,15.33
2022-10-29T21:53:33.230Z,15.35
2022-10-29T21:56:01.912Z,15.33
2022-10-29T21:58:31.536Z,15.39
2022-10-29T22:01:02.933Z,15.38
2022-10-29T22:03:31.703Z,15.39
2022-10-29T22:06:06.724Z,15.41
2022-10-29T22:08:35.082Z,15.43
2022-10-29T22:11:03.812Z,15.42
2022-10-29T22:13:37.873Z,15.49
2022-10-29T22:16:07.003Z,15.52
2022-10-29T22:18:35.305Z,15.54
2022-10-29T22:21:07.487Z,15.49
2022-10-29T22:23:36.341Z,15.48
2022-10-29T22:26:04.695Z,15.43
2022-10-29T22:28:33.917Z,15.38
2022-10-29T22:31:02.637Z,15.33
2022-10-29T22:33:30.899Z,15.24
2022-10-29T22:36:04.560Z,15.21
2022-10-29T22:38:32.595Z,15.18
2022-10-29T22:41:04.187Z,15.16
2022-10-29T22:43:32.807Z,15.14
2022-10-29T22:46:02.100Z,15.13
2022-10-29T22:48:29.964Z,15.13
2022-10-29T22:51:05.289Z,15.13
2022-10-29T22:53:34.873Z,15.14
2022-10-29T22:56:08.608Z,15.15
2022-10-29T22:58:41.821Z,15.19
2022-10-29T23:01:16.539Z,15.21
2022-10-29T23:03:44.900Z,15.23
2022-10-29T23:06:14.128Z,15.21
2022-10-29T23:08:44.223Z,15.20
2022-10-29T23:11:16.610Z,15.18
2022-10-29T23:13:50.725Z,15.15
2022-10-29T23:16:22.133Z,15.14
2022-10-29T23:18:50.204Z,15.13
2022-10-29T23:21:18.282Z,15.11
2022-10-29T23:23:46.116Z,15.11
2022-10-29T23:26:15.262Z,15.11
2022-10-29T23:28:43.572Z,15.08
2022-10-29T23:31:12.145Z,15.05
2022-10-29T23:33:44.450Z,15.01
2022-10-29T23:36:12.994Z,14.97
2022-10-29T23:38:40.795Z,14.94
2022-10-29T23:41:09.028Z,14.86
2022-10-29T23:43:36.864Z,14.80
2022-10-29T23:46:04.878Z,14.75
2022-10-29T23:48:32.901Z,14.73
2022-10-29T23:51:02.431Z,14.73
2022-10-29T23:53:30.325Z,14.80
2022-10-29T23:55:58.167Z,14.76
2022-10-29T23:58:26.311Z,14.76
